Time,TemperatureF,DewpointF,PressureIn,WindDirection,WindDirectionDegrees,WindSpeedMPH,WindSpeedGustMPH,Humidity,HourlyPrecipIn,Conditions,Clouds,dailyrainin,SoftwareType,DateUTC
2013-05-13 00:05:00,53.8,48.8,29.94,NW,315,3.6,4.9,83,0.00,,,0.00,VWS V14.01,2013-05-13 07:05:00,
2013-05-13 00:10:00,54.0,48.9,29.94,SSW,202,2.7,2.7,83,0.00,,,0.00,VWS V14.01,2013-05-13 07:10:00,
2013-05-13 00:15:00,53.8,48.8,29.94,ESE,112,0.0,4.0,83,0.00,,,0.00,VWS V14.01,2013-05-13 07:15:00,
2013-05-13 00:20:00,53.8,48.8,29.94,South,180,2.7,3.6,83,0.00,,,0.00,VWS V14.01,2013-05-13 07:20:00,
2013-05-13 00:25:00,53.6,48.6,29.94,SSW,202,5.8,7.2,83,0.00,,,0.00,VWS V14.01,2013-05-13 07:25:00,
2013-05-13 00:30:00,53.6,48.6,29.94,South,180,3.6,4.0,83,0.00,,,0.00,VWS V14.01,2013-05-13 07:30:00,
2013-05-13 00:36:00,53.8,48.8,29.94,NW,315,3.6,3.6,83,0.00,,,0.00,VWS V14.01,2013-05-13 07:36:00,
2013-05-13 00:41:00,53.8,48.8,29.94,SSE,158,7.2,7.2,83,0.00,,,0.00,VWS V14.01,2013-05-13 07:41:00,
2013-05-13 00:46:00,54.0,49.2,29.94,WSW,248,0.0,2.2,84,0.00,,,0.00,VWS V14.01,2013-05-13 07:46:00,
2013-05-13 00:51:00,53.8,48.8,29.94,SW,225,4.9,6.7,83,0.00,,,0.00,VWS V14.01,2013-05-13 07:51:00,
2013-05-13 00:56:00,53.8,48.8,29.94,South,180,3.6,11.0,83,0.00,,,0.00,VWS V14.01,2013-05-13 07:56:00,
2013-05-13 01:01:00,53.6,48.9,29.94,South,180,14.1,14.1,84,0.00,,,0.00,VWS V14.01,2013-05-13 08:01:00,
2013-05-13 01:06:00,53.6,48.9,29.94,SSW,202,3.1,4.9,84,0.00,,,0.00,VWS V14.01,2013-05-13 08:06:00,
2013-05-13 01:11:00,53.6,48.9,29.94,SSW,202,6.7,6.7,84,0.00,,,0.00,VWS V14.01,2013-05-13 08:11:00,
2013-05-13 01:17:00,53.8,49.1,29.94,ENE,68,0.0,5.8,84,0.00,,,0.00,VWS V14.01,2013-05-13 08:17:00,
2013-05-13 01:22:00,53.8,49.1,29.94,SSE,158,3.6,3.6,84,0.00,,,0.00,VWS V14.01,2013-05-13 08:22:00,
2013-05-13 01:27:00,53.8,49.1,29.94,SSE,158,2.7,2.7,84,0.00,,,0.00,VWS V14.01,2013-05-13 08:27:00,
2013-05-13 01:32:00,53.8,49.1,29.94,SSW,202,5.8,5.8,84,0.00,,,0.00,VWS V14.01,2013-05-13 08:32:00,
2013-05-13 01:37:00,54.0,49.2,29.94,WSW,248,4.9,5.4,84,0.00,,,0.00,VWS V14.01,2013-05-13 08:37:00,
2013-05-13 01:43:00,53.8,49.1,29.94,SSW,202,5.8,5.8,84,0.00,,,0.00,VWS V14.01,2013-05-13 08:43:00,
2013-05-13 01:48:00,53.8,48.8,29.94,WSW,248,2.2,6.3,83,0.00,,,0.00,VWS V14.01,2013-05-13 08:48:00,
2013-05-13 01:53:00,53.4,48.4,29.94,SSE,158,3.1,5.4,83,0.00,,,0.00,VWS V14.01,2013-05-13 08:53:00,
2013-05-13 01:58:00,53.2,48.2,29.94,SW,225,3.1,3.1,83,0.00,,,0.00,VWS V14.01,2013-05-13 08:58:00,
2013-05-13 02:03:00,53.1,48.0,29.94,SSE,158,3.1,9.6,83,0.00,,,0.00,VWS V14.01,2013-05-13 09:03:00,
2013-05-13 02:08:00,52.9,47.9,29.94,SSE,158,0.0,3.6,83,0.00,,,0.00,VWS V14.01,2013-05-13 09:08:00,
2013-05-13 02:13:00,52.9,48.2,29.94,SSE,158,0.0,3.6,84,0.00,,,0.00,VWS V14.01,2013-05-13 09:13:00,
2013-05-13 02:18:00,52.9,48.2,29.94,SSW,202,7.6,7.6,84,0.00,,,0.00,VWS V14.01,2013-05-13 09:18:00,
2013-05-13 02:24:00,52.9,48.2,29.94,NNW,338,0.0,3.1,84,0.00,,,0.00,VWS V14.01,2013-05-13 09:24:00,
2013-05-13 02:29:00,52.9,48.2,29.94,SSW,202,0.0,4.0,84,0.00,,,0.00,VWS V14.01,2013-05-13 09:29:00,
2013-05-13 02:34:00,52.9,48.5,29.94,SSW,202,0.0,11.0,85,0.00,,,0.00,VWS V14.01,2013-05-13 09:34:00,
2013-05-13 02:39:00,52.9,48.5,29.94,WNW,292,3.1,6.7,85,0.00,,,0.00,VWS V14.01,2013-05-13 09:39:00,
2013-05-13 02:44:00,52.7,48.3,29.94,South,180,8.1,8.1,85,0.00,,,0.00,VWS V14.01,2013-05-13 09:44:00,
2013-05-13 02:50:00,52.5,48.2,29.94,SE,135,0.0,0.0,85,0.00,,,0.00,VWS V14.01,2013-05-13 09:50:00,
2013-05-13 02:55:00,52.7,48.3,29.94,SSW,202,0.0,2.7,85,0.00,,,0.00,VWS V14.01,2013-05-13 09:55:00,
2013-05-13 03:00:00,52.7,48.3,29.94,SSW,202,3.6,6.7,85,0.00,,,0.00,VWS V14.01,2013-05-13 10:00:00,
2013-05-13 03:05:00,52.7,48.6,29.94,SSW,202,4.0,5.4,86,0.00,,,0.00,VWS V14.01,2013-05-13 10:05:00,
2013-05-13 03:10:00,52.7,48.6,29.94,NW,315,2.2,3.6,86,0.00,,,0.00,VWS V14.01,2013-05-13 10:10:00,
2013-05-13 03:16:00,52.7,48.6,29.94,SSW,202,0.0,0.0,86,0.00,,,0.00,VWS V14.01,2013-05-13 10:16:00,
2013-05-13 03:21:00,52.7,48.6,29.94,SSW,202,3.1,3.6,86,0.00,,,0.00,VWS V14.01,2013-05-13 10:21:00,
2013-05-13 03:26:00,52.5,48.5,29.91,SSW,202,6.7,6.7,86,0.00,,,0.00,VWS V14.01,2013-05-13 10:26:00,
2013-05-13 03:32:00,52.5,48.5,29.91,SSW,202,3.1,3.1,86,0.00,,,0.00,VWS V14.01,2013-05-13 10:32:00,
2013-05-13 03:37:00,52.5,48.5,29.91,SSW,202,4.9,4.9,86,0.00,,,0.00,VWS V14.01,2013-05-13 10:37:00,
2013-05-13 03:42:00,52.5,48.5,29.94,SSE,158,6.3,6.3,86,0.00,,,0.00,VWS V14.01,2013-05-13 10:42:00,
2013-05-13 03:47:00,52.7,48.6,29.94,SSE,158,4.0,5.8,86,0.00,,,0.00,VWS V14.01,2013-05-13 10:47:00,
2013-05-13 03:52:00,52.7,48.6,29.94,SSE,158,2.7,4.0,86,0.00,,,0.00,VWS V14.01,2013-05-13 10:52:00,
2013-05-13 03:58:00,52.7,48.6,29.91,ESE,112,2.7,5.4,86,0.00,,,0.00,VWS V14.01,2013-05-13 10:58:00,
2013-05-13 04:03:00,52.7,48.6,29.91,WSW,248,0.0,6.3,86,0.00,,,0.00,VWS V14.01,2013-05-13 11:03:00,
2013-05-13 04:08:00,52.9,48.8,29.91,ESE,112,3.1,5.8,86,0.00,,,0.00,VWS V14.01,2013-05-13 11:08:00,
2013-05-13 04:13:00,52.9,48.8,29.91,ESE,112,2.7,2.7,86,0.00,,,0.00,VWS V14.01,2013-05-13 11:13:00,
2013-05-13 04:18:00,53.1,49.3,29.91,South,180,7.2,7.6,87,0.00,,,0.00,VWS V14.01,2013-05-13 11:18:00,
2013-05-13 04:24:00,53.1,49.3,29.94,SSW,202,0.0,2.7,87,0.00,,,0.00,VWS V14.01,2013-05-13 11:24:00,
2013-05-13 04:29:00,53.1,49.3,29.94,South,180,3.1,5.4,87,0.00,,,0.00,VWS V14.01,2013-05-13 11:29:00,
2013-05-13 04:34:00,53.4,49.7,29.94,ESE,112,2.2,3.6,87,0.00,,,0.00,VWS V14.01,2013-05-13 11:34:00,
2013-05-13 04:39:00,53.6,49.5,29.94,SSW,202,5.8,9.2,86,0.00,,,0.00,VWS V14.01,2013-05-13 11:39:00,
2013-05-13 04:44:00,53.6,49.5,29.94,SSE,158,2.7,2.7,86,0.00,,,0.00,VWS V14.01,2013-05-13 11:44:00,
2013-05-13 04:49:00,53.8,49.7,29.94,SSW,202,5.4,5.4,86,0.00,,,0.00,VWS V14.01,2013-05-13 11:49:00,
2013-05-13 04:55:00,54.0,49.9,29.94,SSW,202,6.3,6.3,86,0.00,,,0.00,VWS V14.01,2013-05-13 11:55:00,
2013-05-13 05:00:00,53.8,49.7,29.94,SSW,202,7.2,7.2,86,0.00,,,0.00,VWS V14.01,2013-05-13 12:00:00,
2013-05-13 05:05:00,53.8,49.4,29.94,ESE,112,6.3,6.3,85,0.00,,,0.00,VWS V14.01,2013-05-13 12:05:00,
2013-05-13 05:10:00,53.6,49.5,29.94,SSW,202,3.1,3.6,86,0.00,,,0.00,VWS V14.01,2013-05-13 12:10:00,
2013-05-13 05:15:00,53.6,49.5,29.94,SSW,202,4.9,4.9,86,0.00,,,0.00,VWS V14.01,2013-05-13 12:15:00,
2013-05-13 05:20:00,53.8,49.7,29.94,South,180,4.9,4.9,86,0.00,,,0.00,VWS V14.01,2013-05-13 12:20:00,
2013-05-13 05:26:00,53.8,49.7,29.94,SSW,202,3.1,6.3,86,0.00,,,0.00,VWS V14.01,2013-05-13 12:26:00,
2013-05-13 05:31:00,53.8,49.7,29.94,SSW,202,2.7,3.6,86,0.00,,,0.00,VWS V14.01,2013-05-13 12:31:00,
2013-05-13 05:36:00,53.8,49.7,29.94,SSE,158,4.9,6.7,86,0.00,,,0.00,VWS V14.01,2013-05-13 12:36:00,
2013-05-13 05:41:00,53.8,50.0,29.94,SSW,202,3.1,6.3,87,0.00,,,0.00,VWS V14.01,2013-05-13 12:41:00,
2013-05-13 05:47:00,53.8,50.0,29.94,SSW,202,7.6,7.6,87,0.00,,,0.00,VWS V14.01,2013-05-13 12:47:00,
2013-05-13 05:52:00,53.6,49.8,29.94,South,180,8.3,8.3,87,0.00,,,0.00,VWS V14.01,2013-05-13 12:52:00,
2013-05-13 05:57:00,53.8,50.0,29.94,SSE,158,0.0,0.0,87,0.00,,,0.00,VWS V14.01,2013-05-13 12:57:00,
2013-05-13 06:02:00,53.8,50.0,29.94,NNE,22,0.0,0.0,87,0.00,,,0.00,VWS V14.01,2013-05-13 13:02:00,
2013-05-13 06:08:00,54.0,50.2,29.94,SSW,202,3.1,4.9,87,0.00,,,0.00,VWS V14.01,2013-05-13 13:08:00,
2013-05-13 06:13:00,54.0,50.2,29.94,NNW,338,0.0,3.1,87,0.00,,,0.00,VWS V14.01,2013-05-13 13:13:00,
2013-05-13 06:18:00,53.8,50.0,29.94,South,180,3.6,7.2,87,0.00,,,0.00,VWS V14.01,2013-05-13 13:18:00,
2013-05-13 06:23:00,53.8,50.0,29.94,South,180,2.7,3.1,87,0.00,,,0.00,VWS V14.01,2013-05-13 13:23:00,
2013-05-13 06:28:00,54.0,50.2,29.94,SSW,202,4.9,6.3,87,0.00,,,0.00,VWS V14.01,2013-05-13 13:28:00,
2013-05-13 06:33:00,54.0,50.2,29.94,SSE,158,2.7,3.1,87,0.00,,,0.00,VWS V14.01,2013-05-13 13:33:00,
2013-05-13 06:38:00,54.0,50.2,29.94,SSE,158,2.2,3.1,87,0.00,,,0.00,VWS V14.01,2013-05-13 13:38:00,
2013-05-13 06:44:00,53.8,50.0,29.97,SSW,202,2.7,3.6,87,0.00,,,0.00,VWS V14.01,2013-05-13 13:44:00,
2013-05-13 06:49:00,53.6,49.8,29.97,SSW,202,2.7,6.7,87,0.00,,,0.00,VWS V14.01,2013-05-13 13:49:00,
2013-05-13 06:54:00,53.4,49.7,29.94,SSE,158,5.4,5.4,87,0.00,,,0.00,VWS V14.01,2013-05-13 13:54:00,
2013-05-13 06:59:00,53.4,49.7,29.94,SSW,202,3.1,3.6,87,0.00,,,0.00,VWS V14.01,2013-05-13 13:59:00,
2013-05-13 07:04:00,53.2,49.5,29.94,SSW,202,3.6,7.6,87,0.00,,,0.00,VWS V14.01,2013-05-13 14:04:00,
2013-05-13 07:10:00,53.2,49.5,29.94,SSE,158,3.6,5.4,87,0.00,,,0.00,VWS V14.01,2013-05-13 14:10:00,
2013-05-13 07:15:00,53.1,49.3,29.94,NNW,338,2.7,2.7,87,0.00,,,0.00,VWS V14.01,2013-05-13 14:15:00,
2013-05-13 07:20:00,53.2,49.5,29.94,WNW,292,2.7,2.7,87,0.00,,,0.00,VWS V14.01,2013-05-13 14:20:00,
2013-05-13 07:25:00,53.2,49.5,29.94,SSW,202,3.1,8.7,87,0.00,,,0.00,VWS V14.01,2013-05-13 14:25:00,
2013-05-13 07:30:00,53.4,49.7,29.94,SSE,158,4.5,7.6,87,0.00,,,0.00,VWS V14.01,2013-05-13 14:30:00,
2013-05-13 07:36:00,53.4,49.7,29.94,SW,225,4.9,4.9,87,0.00,,,0.00,VWS V14.01,2013-05-13 14:36:00,
2013-05-13 07:41:00,53.4,49.7,29.97,SW,225,3.6,5.4,87,0.00,,,0.00,VWS V14.01,2013-05-13 14:41:00,
2013-05-13 07:46:00,53.4,49.7,29.97,SSW,202,3.6,3.6,87,0.00,,,0.00,VWS V14.01,2013-05-13 14:46:00,
2013-05-13 07:51:00,53.6,49.5,29.97,NNW,338,0.0,5.8,86,0.00,,,0.00,VWS V14.01,2013-05-13 14:51:00,
2013-05-13 07:56:00,53.6,49.5,29.97,SSW,202,2.7,3.6,86,0.00,,,0.00,VWS V14.01,2013-05-13 14:56:00,
2013-05-13 08:01:00,54.0,49.9,29.97,SE,135,5.4,7.2,86,0.00,,,0.00,VWS V14.01,2013-05-13 15:01:00,
2013-05-13 08:06:00,53.8,49.7,29.97,SSW,202,5.4,5.4,86,0.00,,,0.00,VWS V14.01,2013-05-13 15:06:00,
2013-05-13 08:12:00,53.8,49.7,30.00,South,180,3.6,3.6,86,0.00,,,0.00,VWS V14.01,2013-05-13 15:12:00,
2013-05-13 08:17:00,53.8,49.7,30.00,South,180,3.6,4.0,86,0.00,,,0.00,VWS V14.01,2013-05-13 15:17:00,
2013-05-13 08:22:00,53.8,49.7,30.00,SSW,202,4.0,8.1,86,0.00,,,0.00,VWS V14.01,2013-05-13 15:22:00,
2013-05-13 08:27:00,54.1,50.0,29.97,SSW,202,4.0,7.6,86,0.00,,,0.00,VWS V14.01,2013-05-13 15:27:00,
2013-05-13 08:32:00,54.3,49.9,29.97,SSE,158,6.3,6.3,85,0.00,,,0.00,VWS V14.01,2013-05-13 15:32:00,
2013-05-13 08:37:00,54.3,49.9,29.97,South,180,4.0,4.0,85,0.00,,,0.00,VWS V14.01,2013-05-13 15:37:00,
2013-05-13 08:43:00,54.5,49.8,29.97,NW,315,3.6,4.0,84,0.00,,,0.00,VWS V14.01,2013-05-13 15:43:00,
2013-05-13 08:48:00,54.5,49.5,29.97,SSW,202,3.6,3.6,83,0.00,,,0.00,VWS V14.01,2013-05-13 15:48:00,
2013-05-13 08:53:00,54.7,49.6,29.97,SSE,158,2.7,2.7,83,0.00,,,0.00,VWS V14.01,2013-05-13 15:53:00,
2013-05-13 08:58:00,54.9,49.5,29.97,SW,225,3.6,3.6,82,0.00,,,0.00,VWS V14.01,2013-05-13 15:58:00,
2013-05-13 09:03:00,54.9,49.2,29.97,ESE,112,4.0,5.8,81,0.00,,,0.00,VWS V14.01,2013-05-13 16:03:00,
2013-05-13 09:09:00,55.4,49.7,30.00,South,180,3.6,4.0,81,0.00,,,0.00,VWS V14.01,2013-05-13 16:09:00,
2013-05-13 09:14:00,55.6,49.5,30.00,ENE,68,2.7,2.7,80,0.00,,,0.00,VWS V14.01,2013-05-13 16:14:00,
2013-05-13 09:19:00,55.9,49.2,30.00,South,180,2.7,3.6,78,0.00,,,0.00,VWS V14.01,2013-05-13 16:19:00,
2013-05-13 09:24:00,55.9,49.2,30.00,South,180,8.7,8.7,78,0.00,,,0.00,VWS V14.01,2013-05-13 16:24:00,
2013-05-13 09:29:00,55.6,48.5,30.00,South,180,3.1,6.3,77,0.00,,,0.00,VWS V14.01,2013-05-13 16:29:00,
2013-05-13 09:34:00,55.8,48.7,30.00,SSW,202,3.1,5.4,77,0.00,,,0.00,VWS V14.01,2013-05-13 16:34:00,
2013-05-13 09:40:00,55.6,48.5,30.00,SSW,202,3.1,7.6,77,0.00,,,0.00,VWS V14.01,2013-05-13 16:40:00,
2013-05-13 09:45:00,55.6,48.5,30.00,SSW,202,3.6,3.6,77,0.00,,,0.00,VWS V14.01,2013-05-13 16:45:00,
2013-05-13 09:50:00,56.1,49.0,30.00,SSW,202,2.7,3.6,77,0.00,,,0.00,VWS V14.01,2013-05-13 16:50:00,
2013-05-13 09:55:00,55.9,48.5,30.00,SSE,158,10.1,10.5,76,0.00,,,0.00,VWS V14.01,2013-05-13 16:55:00,
2013-05-13 10:00:00,55.9,48.5,30.00,SSE,158,4.0,5.4,76,0.00,,,0.00,VWS V14.01,2013-05-13 17:00:00,
2013-05-13 10:05:00,56.1,48.7,30.00,SW,225,5.4,6.3,76,0.00,,,0.00,VWS V14.01,2013-05-13 17:05:00,
2013-05-13 10:11:00,56.3,48.8,30.00,SSW,202,5.4,7.2,76,0.00,,,0.00,VWS V14.01,2013-05-13 17:11:00,
2013-05-13 10:16:00,56.3,48.5,30.00,SW,225,3.6,3.6,75,0.00,,,0.00,VWS V14.01,2013-05-13 17:16:00,
2013-05-13 10:21:00,56.7,48.8,30.00,West,270,3.6,3.6,75,0.00,,,0.00,VWS V14.01,2013-05-13 17:21:00,
2013-05-13 10:26:00,57.4,49.2,30.00,WSW,248,3.6,3.6,74,0.00,,,0.00,VWS V14.01,2013-05-13 17:26:00,
2013-05-13 10:31:00,57.9,49.3,30.00,SSW,202,3.1,5.8,73,0.00,,,0.00,VWS V14.01,2013-05-13 17:31:00,
2013-05-13 10:36:00,58.1,48.8,30.00,SSW,202,6.3,6.3,71,0.00,,,0.00,VWS V14.01,2013-05-13 17:36:00,
2013-05-13 10:41:00,57.9,47.8,30.00,SSW,202,3.6,4.5,69,0.00,,,0.00,VWS V14.01,2013-05-13 17:41:00,
2013-05-13 10:47:00,57.9,47.8,30.00,West,270,4.9,8.1,69,0.00,,,0.00,VWS V14.01,2013-05-13 17:47:00,
2013-05-13 10:52:00,58.3,48.2,30.00,SSW,202,2.7,3.1,69,0.00,,,0.00,VWS V14.01,2013-05-13 17:52:00,
2013-05-13 10:57:00,58.3,48.2,30.00,SSE,158,3.6,6.7,69,0.00,,,0.00,VWS V14.01,2013-05-13 17:57:00,
2013-05-13 11:02:00,58.5,48.3,30.00,SSE,158,3.1,4.0,69,0.00,,,0.00,VWS V14.01,2013-05-13 18:02:00,
2013-05-13 11:07:00,58.8,48.3,30.00,NW,315,6.3,6.3,68,0.00,,,0.00,VWS V14.01,2013-05-13 18:07:00,
2013-05-13 11:12:00,59.2,47.8,30.00,SSE,158,6.3,6.3,66,0.00,,,0.00,VWS V14.01,2013-05-13 18:12:00,
2013-05-13 11:17:00,59.2,47.8,30.00,SW,225,4.9,7.2,66,0.00,,,0.00,VWS V14.01,2013-05-13 18:17:00,
2013-05-13 11:23:00,59.9,48.5,30.00,SSW,202,3.6,4.0,66,0.00,,,0.00,VWS V14.01,2013-05-13 18:23:00,
2013-05-13 11:28:00,60.3,47.6,30.00,SSW,202,4.0,4.0,63,0.00,,,0.00,VWS V14.01,2013-05-13 18:28:00,
2013-05-13 11:33:00,60.6,48.0,30.00,SSW,202,5.4,8.7,63,0.00,,,0.00,VWS V14.01,2013-05-13 18:33:00,
2013-05-13 11:38:00,60.3,47.6,30.00,SSW,202,4.9,5.4,63,0.00,,,0.00,VWS V14.01,2013-05-13 18:38:00,
2013-05-13 11:44:00,61.3,47.8,30.03,SSW,202,8.7,8.7,61,0.00,,,0.00,VWS V14.01,2013-05-13 18:44:00,
2013-05-13 11:49:00,60.8,47.3,30.03,SSW,202,5.4,5.4,61,0.00,,,0.00,VWS V14.01,2013-05-13 18:49:00,
2013-05-13 11:54:00,61.7,47.2,30.00,SSE,158,5.4,5.4,59,0.00,,,0.00,VWS V14.01,2013-05-13 18:54:00,
2013-05-13 11:59:00,62.2,47.3,30.00,SSE,158,2.2,5.8,58,0.00,,,0.00,VWS V14.01,2013-05-13 18:59:00,
2013-05-13 12:04:00,62.6,46.7,30.00,SSW,202,3.1,5.8,56,0.00,,,0.00,VWS V14.01,2013-05-13 19:04:00,
2013-05-13 12:09:00,63.1,47.2,30.00,South,180,2.2,2.2,56,0.00,,,0.00,VWS V14.01,2013-05-13 19:09:00,
2013-05-13 12:14:00,63.3,46.4,30.00,SSW,202,3.6,3.6,54,0.00,,,0.00,VWS V14.01,2013-05-13 19:14:00,
2013-05-13 12:20:00,63.5,46.6,30.00,SSW,202,7.2,7.2,54,0.00,,,0.00,VWS V14.01,2013-05-13 19:20:00,
2013-05-13 12:25:00,64.4,46.9,30.00,NE,45,2.7,2.7,53,0.00,,,0.00,VWS V14.01,2013-05-13 19:25:00,
2013-05-13 12:30:00,65.3,46.2,30.00,ENE,68,5.4,5.4,50,0.00,,,0.00,VWS V14.01,2013-05-13 19:30:00,
2013-05-13 12:35:00,65.3,46.2,30.00,SSW,202,2.2,6.3,50,0.00,,,0.00,VWS V14.01,2013-05-13 19:35:00,
2013-05-13 12:40:00,63.9,45.9,30.00,SSW,202,5.8,7.6,52,0.00,,,0.00,VWS V14.01,2013-05-13 19:40:00,
2013-05-13 12:45:00,64.4,46.4,30.00,SSW,202,3.6,5.4,52,0.00,,,0.00,VWS V14.01,2013-05-13 19:45:00,
2013-05-13 12:51:00,65.5,46.4,30.00,SSW,202,5.4,5.4,50,0.00,,,0.00,VWS V14.01,2013-05-13 19:51:00,
2013-05-13 12:56:00,65.8,46.7,30.00,SE,135,3.6,6.3,50,0.00,,,0.00,VWS V14.01,2013-05-13 19:56:00,
2013-05-13 13:01:00,66.7,47.0,30.00,SSE,158,2.7,3.6,49,0.00,,,0.00,VWS V14.01,2013-05-13 20:01:00,
2013-05-13 13:06:00,66.9,46.0,30.00,SSE,158,7.6,8.1,47,0.00,,,0.00,VWS V14.01,2013-05-13 20:06:00,
2013-05-13 13:11:00,65.7,46.0,30.00,SSE,158,2.2,6.3,49,0.00,,,0.00,VWS V14.01,2013-05-13 20:11:00,
2013-05-13 13:17:00,66.6,46.3,30.00,SSW,202,5.4,5.4,48,0.00,,,0.00,VWS V14.01,2013-05-13 20:17:00,
2013-05-13 13:22:00,64.8,45.2,30.00,ESE,112,4.0,5.4,49,0.00,,,0.00,VWS V14.01,2013-05-13 20:22:00,
2013-05-13 13:27:00,64.6,46.6,30.00,SSW,202,6.3,7.6,52,0.00,,,0.00,VWS V14.01,2013-05-13 20:27:00,
2013-05-13 13:32:00,64.8,46.2,30.00,South,180,6.3,8.1,51,0.00,,,0.00,VWS V14.01,2013-05-13 20:32:00,
2013-05-13 13:37:00,64.4,45.9,30.00,SSE,158,4.0,7.2,51,0.00,,,0.00,VWS V14.01,2013-05-13 20:37:00,
2013-05-13 13:43:00,66.0,46.9,29.97,NNW,338,3.1,5.4,50,0.00,,,0.00,VWS V14.01,2013-05-13 20:43:00,
2013-05-13 13:48:00,65.8,46.7,29.97,ESE,112,3.6,4.0,50,0.00,,,0.00,VWS V14.01,2013-05-13 20:48:00,
2013-05-13 13:53:00,66.9,46.6,29.97,SSW,202,2.7,2.7,48,0.00,,,0.00,VWS V14.01,2013-05-13 20:53:00,
2013-05-13 13:58:00,67.8,46.3,29.97,SSW,202,3.1,5.8,46,0.00,,,0.00,VWS V14.01,2013-05-13 20:58:00,
2013-05-13 14:04:00,68.4,46.2,29.97,SSW,202,2.7,4.0,45,0.00,,,0.00,VWS V14.01,2013-05-13 21:04:00,
2013-05-13 14:09:00,68.4,46.2,29.97,ENE,68,3.1,5.4,45,0.00,,,0.00,VWS V14.01,2013-05-13 21:09:00,
2013-05-13 14:14:00,68.2,46.0,29.97,West,270,0.0,5.8,45,0.00,,,0.00,VWS V14.01,2013-05-13 21:14:00,
2013-05-13 14:19:00,67.8,45.7,29.97,SSE,158,8.3,8.3,45,0.00,,,0.00,VWS V14.01,2013-05-13 21:19:00,
2013-05-13 14:24:00,66.0,45.8,29.97,SSW,202,8.1,8.1,48,0.00,,,0.00,VWS V14.01,2013-05-13 21:24:00,
2013-05-13 14:30:00,65.8,46.2,29.97,SSE,158,5.8,9.6,49,0.00,,,0.00,VWS V14.01,2013-05-13 21:30:00,
2013-05-13 14:35:00,66.6,46.8,29.97,SW,225,6.3,8.1,49,0.00,,,0.00,VWS V14.01,2013-05-13 21:35:00,
2013-05-13 14:40:00,67.1,46.2,29.97,NW,315,3.1,4.0,47,0.00,,,0.00,VWS V14.01,2013-05-13 21:40:00,
2013-05-13 14:45:00,68.5,46.4,29.97,WSW,248,2.2,3.6,45,0.00,,,0.00,VWS V14.01,2013-05-13 21:45:00,
2013-05-13 14:50:00,70.5,47.0,29.97,WNW,292,2.7,3.1,43,0.00,,,0.00,VWS V14.01,2013-05-13 21:50:00,
2013-05-13 14:55:00,70.0,45.9,29.97,SSW,202,5.4,5.4,42,0.00,,,0.00,VWS V14.01,2013-05-13 21:55:00,
2013-05-13 15:00:00,69.3,45.8,29.97,SSW,202,2.2,3.6,43,0.00,,,0.00,VWS V14.01,2013-05-13 22:00:00,
2013-05-13 15:06:00,68.5,45.8,29.97,SSE,158,4.0,4.5,44,0.00,,,0.00,VWS V14.01,2013-05-13 22:06:00,
2013-05-13 15:11:00,69.1,45.7,29.97,South,180,3.1,3.6,43,0.00,,,0.00,VWS V14.01,2013-05-13 22:11:00,
2013-05-13 15:16:00,68.9,45.5,29.97,SSW,202,4.0,4.0,43,0.00,,,0.00,VWS V14.01,2013-05-13 22:16:00,
2013-05-13 15:21:00,68.7,45.3,29.97,SW,225,3.6,4.5,43,0.00,,,0.00,VWS V14.01,2013-05-13 22:21:00,
2013-05-13 15:26:00,68.9,45.5,29.97,SSW,202,3.6,3.6,43,0.00,,,0.00,VWS V14.01,2013-05-13 22:26:00,
2013-05-13 15:31:00,68.7,45.3,29.97,South,180,5.8,5.8,43,0.00,,,0.00,VWS V14.01,2013-05-13 22:31:00,
2013-05-13 15:37:00,69.1,45.7,29.97,SSE,158,2.7,4.5,43,0.00,,,0.00,VWS V14.01,2013-05-13 22:37:00,
2013-05-13 15:42:00,68.7,45.3,29.94,WSW,248,8.3,9.6,43,0.00,,,0.00,VWS V14.01,2013-05-13 22:42:00,
2013-05-13 15:47:00,68.0,45.3,29.94,WSW,248,4.0,4.9,44,0.00,,,0.00,VWS V14.01,2013-05-13 22:47:00,
2013-05-13 15:52:00,68.5,45.8,29.94,SSW,202,3.6,4.0,44,0.00,,,0.00,VWS V14.01,2013-05-13 22:52:00,
2013-05-13 15:57:00,69.3,45.2,29.94,NW,315,4.0,4.5,42,0.00,,,0.00,VWS V14.01,2013-05-13 22:57:00,
2013-05-13 16:03:00,68.7,44.7,29.94,West,270,3.1,5.8,42,0.00,,,0.00,VWS V14.01,2013-05-13 23:03:00,
2013-05-13 16:08:00,68.4,45.0,29.94,SSE,158,3.6,4.0,43,0.00,,,0.00,VWS V14.01,2013-05-13 23:08:00,
2013-05-13 16:13:00,67.6,45.0,29.94,ESE,112,3.1,7.6,44,0.00,,,0.00,VWS V14.01,2013-05-13 23:13:00,
2013-05-13 16:19:00,67.3,45.2,29.94,NE,45,3.1,5.4,45,0.00,,,0.00,VWS V14.01,2013-05-13 23:19:00,
2013-05-13 16:24:00,67.6,45.6,29.94,WNW,292,4.0,4.0,45,0.00,,,0.00,VWS V14.01,2013-05-13 23:24:00,
2013-05-13 16:29:00,67.6,45.6,29.94,SSW,202,4.0,4.0,45,0.00,,,0.00,VWS V14.01,2013-05-13 23:29:00,
2013-05-13 16:34:00,67.1,45.1,29.94,SW,225,2.7,3.6,45,0.00,,,0.00,VWS V14.01,2013-05-13 23:34:00,
2013-05-13 16:39:00,67.6,45.6,29.94,West,270,2.7,8.3,45,0.00,,,0.00,VWS V14.01,2013-05-13 23:39:00,
2013-05-13 16:44:00,67.1,45.1,29.94,SSW,202,6.3,6.3,45,0.00,,,0.00,VWS V14.01,2013-05-13 23:44:00,
2013-05-13 16:50:00,66.2,44.8,29.94,SSW,202,8.3,8.3,46,0.00,,,0.00,VWS V14.01,2013-05-13 23:50:00,
2013-05-13 16:55:00,66.4,45.0,29.94,SSE,158,3.1,5.4,46,0.00,,,0.00,VWS V14.01,2013-05-13 23:55:00,
2013-05-13 17:00:00,66.9,45.5,29.94,South,180,4.9,4.9,46,0.00,,,0.00,VWS V14.01,2013-05-14 00:00:00,
2013-05-13 17:05:00,67.1,45.1,29.94,WSW,248,5.8,5.8,45,0.00,,,0.00,VWS V14.01,2013-05-14 00:05:00,
2013-05-13 17:10:00,67.1,45.1,29.91,East,90,3.1,5.8,45,0.00,,,0.00,VWS V14.01,2013-05-14 00:10:00,
2013-05-13 17:16:00,66.7,44.8,29.91,South,180,5.4,5.4,45,0.00,,,0.00,VWS V14.01,2013-05-14 00:16:00,
2013-05-13 17:21:00,66.0,44.7,29.91,NE,45,0.0,2.7,46,0.00,,,0.00,VWS V14.01,2013-05-14 00:21:00,
2013-05-13 17:26:00,65.7,44.9,29.91,East,90,3.1,5.4,47,0.00,,,0.00,VWS V14.01,2013-05-14 00:26:00,
2013-05-13 17:31:00,65.5,44.7,29.91,WNW,292,3.1,4.9,47,0.00,,,0.00,VWS V14.01,2013-05-14 00:31:00,
2013-05-13 17:36:00,65.5,44.7,29.91,ENE,68,5.4,7.6,47,0.00,,,0.00,VWS V14.01,2013-05-14 00:36:00,
2013-05-13 17:41:00,63.9,43.8,29.91,ESE,112,0.0,7.2,48,0.00,,,0.00,VWS V14.01,2013-05-14 00:41:00,
2013-05-13 17:47:00,63.1,43.7,29.91,WSW,248,4.9,4.9,49,0.00,,,0.00,VWS V14.01,2013-05-14 00:47:00,
2013-05-13 17:52:00,63.1,44.2,29.91,WSW,248,3.1,4.9,50,0.00,,,0.00,VWS V14.01,2013-05-14 00:52:00,
2013-05-13 17:57:00,63.5,44.5,29.91,WNW,292,3.1,5.8,50,0.00,,,0.00,VWS V14.01,2013-05-14 00:57:00,
2013-05-13 18:02:00,63.3,43.8,29.91,WNW,292,5.8,6.3,49,0.00,,,0.00,VWS V14.01,2013-05-14 01:02:00,
2013-05-13 18:07:00,62.8,43.4,29.91,South,180,5.8,8.7,49,0.00,,,0.00,VWS V14.01,2013-05-14 01:07:00,
2013-05-13 18:12:00,62.2,43.4,29.88,SSW,202,4.0,4.0,50,0.00,,,0.00,VWS V14.01,2013-05-14 01:12:00,
2013-05-13 18:18:00,62.2,43.9,29.88,SW,225,3.6,3.6,51,0.00,,,0.00,VWS V14.01,2013-05-14 01:18:00,
2013-05-13 18:23:00,61.7,43.4,29.88,SSE,158,4.9,4.9,51,0.00,,,0.00,VWS V14.01,2013-05-14 01:23:00,
2013-05-13 18:28:00,61.9,43.6,29.88,SSW,202,4.9,4.9,51,0.00,,,0.00,VWS V14.01,2013-05-14 01:28:00,
2013-05-13 18:33:00,61.7,43.4,29.88,ENE,68,3.6,5.4,51,0.00,,,0.00,VWS V14.01,2013-05-14 01:33:00,
2013-05-13 18:38:00,61.5,43.2,29.88,WSW,248,2.2,6.3,51,0.00,,,0.00,VWS V14.01,2013-05-14 01:38:00,
2013-05-13 18:44:00,61.5,42.7,29.88,SSE,158,6.3,6.3,50,0.00,,,0.00,VWS V14.01,2013-05-14 01:44:00,
2013-05-13 18:49:00,61.3,42.6,29.88,SE,135,4.9,4.9,50,0.00,,,0.00,VWS V14.01,2013-05-14 01:49:00,
2013-05-13 18:54:00,61.2,42.4,29.88,NNE,22,4.5,4.9,50,0.00,,,0.00,VWS V14.01,2013-05-14 01:54:00,
2013-05-13 18:59:00,61.0,42.2,29.88,SSE,158,2.2,3.1,50,0.00,,,0.00,VWS V14.01,2013-05-14 01:59:00,
2013-05-13 19:04:00,60.8,42.1,29.88,SE,135,3.6,4.9,50,0.00,,,0.00,VWS V14.01,2013-05-14 02:04:00,
2013-05-13 19:10:00,60.8,42.1,29.88,SSE,158,3.6,3.6,50,0.00,,,0.00,VWS V14.01,2013-05-14 02:10:00,
2013-05-13 19:15:00,60.8,42.1,29.88,SW,225,0.0,3.1,50,0.00,,,0.00,VWS V14.01,2013-05-14 02:15:00,
2013-05-13 19:20:00,60.8,42.1,29.88,SW,225,3.6,3.6,50,0.00,,,0.00,VWS V14.01,2013-05-14 02:20:00,
2013-05-13 19:25:00,60.6,42.4,29.88,SSE,158,5.8,5.8,51,0.00,,,0.00,VWS V14.01,2013-05-14 02:25:00,
2013-05-13 19:30:00,60.4,42.2,29.88,South,180,2.7,5.8,51,0.00,,,0.00,VWS V14.01,2013-05-14 02:30:00,
2013-05-13 19:35:00,60.4,42.2,29.88,SSW,202,5.4,5.4,51,0.00,,,0.00,VWS V14.01,2013-05-14 02:35:00,
2013-05-13 19:40:00,60.4,42.2,29.85,South,180,4.9,6.7,51,0.00,,,0.00,VWS V14.01,2013-05-14 02:40:00,
2013-05-13 19:46:00,60.4,42.2,29.85,WSW,248,2.7,4.9,51,0.00,,,0.00,VWS V14.01,2013-05-14 02:46:00,
2013-05-13 19:51:00,60.3,42.1,29.85,SSE,158,6.7,6.7,51,0.00,,,0.00,VWS V14.01,2013-05-14 02:51:00,
2013-05-13 19:56:00,60.3,42.1,29.88,SSW,202,3.6,3.6,51,0.00,,,0.00,VWS V14.01,2013-05-14 02:56:00,
2013-05-13 20:01:00,60.1,41.9,29.88,SSW,202,7.2,7.2,51,0.00,,,0.00,VWS V14.01,2013-05-14 03:01:00,
2013-05-13 20:06:00,60.1,41.9,29.88,SW,225,3.1,3.1,51,0.00,,,0.00,VWS V14.01,2013-05-14 03:06:00,
2013-05-13 20:11:00,59.9,41.8,29.88,SSW,202,3.6,6.3,51,0.00,,,0.00,VWS V14.01,2013-05-14 03:11:00,
2013-05-13 20:16:00,59.7,42.1,29.88,South,180,3.1,5.4,52,0.00,,,0.00,VWS V14.01,2013-05-14 03:16:00,
2013-05-13 20:22:00,59.4,42.2,29.88,South,180,4.0,4.0,53,0.00,,,0.00,VWS V14.01,2013-05-14 03:22:00,
2013-05-13 20:27:00,59.2,42.1,29.85,South,180,2.7,7.2,53,0.00,,,0.00,VWS V14.01,2013-05-14 03:27:00,
2013-05-13 20:32:00,59.0,42.4,29.85,SW,225,2.7,2.7,54,0.00,,,0.00,VWS V14.01,2013-05-14 03:32:00,
2013-05-13 20:37:00,58.8,42.7,29.85,South,180,0.0,4.9,55,0.00,,,0.00,VWS V14.01,2013-05-14 03:37:00,
2013-05-13 20:43:00,58.6,43.0,29.85,SSW,202,3.6,4.9,56,0.00,,,0.00,VWS V14.01,2013-05-14 03:43:00,
2013-05-13 20:48:00,58.6,43.0,29.85,SSW,202,4.0,6.3,56,0.00,,,0.00,VWS V14.01,2013-05-14 03:48:00,
2013-05-13 20:53:00,58.5,42.8,29.85,SW,225,4.9,6.3,56,0.00,,,0.00,VWS V14.01,2013-05-14 03:53:00,
2013-05-13 20:58:00,58.5,42.8,29.88,SSW,202,6.3,6.3,56,0.00,,,0.00,VWS V14.01,2013-05-14 03:58:00,
2013-05-13 21:01:00,58.5,42.8,29.88,SSE,158,4.9,5.4,56,0.00,,,0.00,VWS V14.01,2013-05-14 04:01:00,
2013-05-13 21:02:00,58.5,42.8,29.88,SSW,202,3.1,4.9,56,0.00,,,0.00,VWS V14.01,2013-05-14 04:02:00,
2013-05-13 21:07:00,58.6,43.5,29.88,SW,225,3.6,3.6,57,0.00,,,0.00,VWS V14.01,2013-05-14 04:07:00,
2013-05-13 21:08:00,58.6,43.5,29.88,SSW,202,3.6,3.6,57,0.00,,,0.00,VWS V14.01,2013-05-14 04:08:00,
2013-05-13 21:13:00,58.5,43.3,29.88,SE,135,3.6,3.6,57,0.00,,,0.00,VWS V14.01,2013-05-14 04:13:00,
2013-05-13 21:18:00,58.5,43.3,29.88,South,180,5.4,5.8,57,0.00,,,0.00,VWS V14.01,2013-05-14 04:18:00,
2013-05-13 21:23:00,58.5,43.3,29.88,SSE,158,3.6,4.0,57,0.00,,,0.00,VWS V14.01,2013-05-14 04:23:00,
2013-05-13 21:28:00,58.3,43.6,29.88,SSW,202,4.9,4.9,58,0.00,,,0.00,VWS V14.01,2013-05-14 04:28:00,
2013-05-13 21:33:00,58.3,43.6,29.88,South,180,6.3,6.3,58,0.00,,,0.00,VWS V14.01,2013-05-14 04:33:00,
2013-05-13 21:39:00,58.1,43.4,29.88,SW,225,7.6,7.6,58,0.00,,,0.00,VWS V14.01,2013-05-14 04:39:00,
2013-05-13 21:44:00,57.9,43.7,29.88,SSE,158,3.1,4.9,59,0.00,,,0.00,VWS V14.01,2013-05-14 04:44:00,
2013-05-13 21:49:00,57.7,43.5,29.88,SW,225,3.6,4.9,59,0.00,,,0.00,VWS V14.01,2013-05-14 04:49:00,
2013-05-13 21:54:00,57.7,44.0,29.88,SSW,202,2.7,2.7,60,0.00,,,0.00,VWS V14.01,2013-05-14 04:54:00,
2013-05-13 21:59:00,57.7,44.0,29.88,SSW,202,3.6,5.8,60,0.00,,,0.00,VWS V14.01,2013-05-14 04:59:00,
2013-05-13 22:04:00,57.7,44.0,29.88,SSE,158,6.3,6.3,60,0.00,,,0.00,VWS V14.01,2013-05-14 05:04:00,
2013-05-13 22:09:00,57.7,43.5,29.88,SSE,158,4.0,4.0,59,0.00,,,0.00,VWS V14.01,2013-05-14 05:09:00,
2013-05-13 22:15:00,57.9,43.7,29.88,SSW,202,3.6,4.0,59,0.00,,,0.00,VWS V14.01,2013-05-14 05:15:00,
2013-05-13 22:20:00,57.7,43.5,29.88,WSW,248,0.0,3.6,59,0.00,,,0.00,VWS V14.01,2013-05-14 05:20:00,
2013-05-13 22:25:00,57.7,44.0,29.88,SSW,202,3.1,5.8,60,0.00,,,0.00,VWS V14.01,2013-05-14 05:25:00,
2013-05-13 22:31:00,57.6,43.8,29.88,SW,225,0.0,0.0,60,0.00,,,0.00,VWS V14.01,2013-05-14 05:31:00,
2013-05-13 22:36:00,57.6,44.2,29.88,SSW,202,3.1,3.1,61,0.00,,,0.00,VWS V14.01,2013-05-14 05:36:00,
2013-05-13 22:41:00,57.6,44.2,29.88,South,180,4.0,4.0,61,0.00,,,0.00,VWS V14.01,2013-05-14 05:41:00,
2013-05-13 22:46:00,57.6,44.2,29.88,SSW,202,2.7,4.0,61,0.00,,,0.00,VWS V14.01,2013-05-14 05:46:00,
2013-05-13 22:51:00,57.7,44.4,29.88,ESE,112,0.0,2.7,61,0.00,,,0.00,VWS V14.01,2013-05-14 05:51:00,
2013-05-13 22:56:00,57.9,44.6,29.88,South,180,4.0,4.0,61,0.00,,,0.00,VWS V14.01,2013-05-14 05:56:00,
2013-05-13 23:01:00,57.7,44.4,29.88,WNW,292,2.7,3.6,61,0.00,,,0.00,VWS V14.01,2013-05-14 06:01:00,
2013-05-13 23:07:00,57.7,44.4,29.88,SSW,202,3.1,3.1,61,0.00,,,0.00,VWS V14.01,2013-05-14 06:07:00,
2013-05-13 23:12:00,57.6,44.2,29.85,SSW,202,4.9,4.9,61,0.00,,,0.00,VWS V14.01,2013-05-14 06:12:00,
2013-05-13 23:17:00,57.2,43.9,29.85,ENE,68,0.0,4.0,61,0.00,,,0.00,VWS V14.01,2013-05-14 06:17:00,
2013-05-13 23:22:00,57.0,44.1,29.85,WSW,248,2.2,2.2,62,0.00,,,0.00,VWS V14.01,2013-05-14 06:22:00,
2013-05-13 23:27:00,56.8,44.4,29.88,South,180,5.4,5.4,63,0.00,,,0.00,VWS V14.01,2013-05-14 06:27:00,
2013-05-13 23:32:00,56.7,44.6,29.88,WNW,292,2.7,3.1,64,0.00,,,0.00,VWS V14.01,2013-05-14 06:32:00,
2013-05-13 23:37:00,56.5,44.9,29.88,SW,225,3.6,4.0,65,0.00,,,0.00,VWS V14.01,2013-05-14 06:37:00,
2013-05-13 23:43:00,56.3,44.7,29.85,SSW,202,3.6,4.9,65,0.00,,,0.00,VWS V14.01,2013-05-14 06:43:00,
2013-05-13 23:48:00,56.1,44.9,29.85,SSW,202,2.7,3.1,66,0.00,,,0.00,VWS V14.01,2013-05-14 06:48:00,
2013-05-13 23:53:00,55.9,44.8,29.85,SSW,202,0.0,4.0,66,0.00,,,0.00,VWS V14.01,2013-05-14 06:53:00,
2013-05-13 23:58:00,55.9,45.2,29.85,South,180,4.0,5.4,67,0.00,,,0.00,VWS V14.01,2013-05-14 06:58:00,